sensor_id;sensor_type;location;lat;lon;timestamp;P1;durP1;ratioP1;P2;durP2;ratioP2
58657;SDS011;44428;45.630;13.786;2022-07-23T00:01:34;20.10;;;18.10;;
58657;SDS011;44428;45.630;13.786;2022-07-23T00:04:00;20.08;;;18.02;;
58657;SDS011;44428;45.630;13.786;2022-07-23T00:06:26;20.80;;;17.80;;
58657;SDS011;44428;45.630;13.786;2022-07-23T00:08:51;20.33;;;18.33;;
58657;SDS011;44428;45.630;13.786;2022-07-23T00:11:18;20.90;;;18.90;;
58657;SDS011;44428;45.630;13.786;2022-07-23T00:13:44;20.75;;;18.75;;
58657;SDS011;44428;45.630;13.786;2022-07-23T00:16:09;20.23;;;18.33;;
58657;SDS011;44428;45.630;13.786;2022-07-23T00:18:35;20.10;;;18.25;;
58657;SDS011;44428;45.630;13.786;2022-07-23T00:21:01;19.90;;;17.90;;
58657;SDS011;44428;45.630;13.786;2022-07-23T00:23:27;18.92;;;17.08;;
58657;SDS011;44428;45.630;13.786;2022-07-23T00:25:54;20.55;;;18.42;;
58657;SDS011;44428;45.630;13.786;2022-07-23T00:28:20;20.52;;;18.35;;
58657;SDS011;44428;45.630;13.786;2022-07-23T00:30:46;20.58;;;18.58;;
58657;SDS011;44428;45.630;13.786;2022-07-23T00:33:12;20.90;;;18.80;;
58657;SDS011;44428;45.630;13.786;2022-07-23T00:35:38;20.35;;;18.55;;
58657;SDS011;44428;45.630;13.786;2022-07-23T00:38:08;21.25;;;19.05;;
58657;SDS011;44428;45.630;13.786;2022-07-23T00:40:35;21.08;;;19.08;;
58657;SDS011;44428;45.630;13.786;2022-07-23T00:43:01;20.48;;;18.58;;
58657;SDS011;44428;45.630;13.786;2022-07-23T00:45:28;19.98;;;18.15;;
58657;SDS011;44428;45.630;13.786;2022-07-23T00:47:54;20.08;;;17.83;;
58657;SDS011;44428;45.630;13.786;2022-07-23T00:50:20;20.92;;;18.88;;
58657;SDS011;44428;45.630;13.786;2022-07-23T00:52:46;19.58;;;17.65;;
58657;SDS011;44428;45.630;13.786;2022-07-23T00:55:12;21.02;;;18.88;;
58657;SDS011;44428;45.630;13.786;2022-07-23T00:57:39;19.98;;;18.17;;
58657;SDS011;44428;45.630;13.786;2022-07-23T01:00:07;19.38;;;17.38;;
58657;SDS011;44428;45.630;13.786;2022-07-23T01:05:02;19.55;;;17.58;;
58657;SDS011;44428;45.630;13.786;2022-07-23T01:07:28;20.10;;;18.10;;
58657;SDS011;44428;45.630;13.786;2022-07-23T01:09:55;19.45;;;17.65;;
58657;SDS011;44428;45.630;13.786;2022-07-23T01:12:21;19.73;;;17.90;;
58657;SDS011;44428;45.630;13.786;2022-07-23T01:14:54;19.50;;;17.63;;
58657;SDS011;44428;45.630;13.786;2022-07-23T01:17:25;19.95;;;17.95;;
58657;SDS011;44428;45.630;13.786;2022-07-23T01:19:51;19.90;;;18.10;;
58657;SDS011;44428;45.630;13.786;2022-07-23T01:22:18;19.45;;;17.58;;
58657;SDS011;44428;45.630;13.786;2022-07-23T01:24:45;20.83;;;18.92;;
58657;SDS011;44428;45.630;13.786;2022-07-23T01:27:11;20.33;;;18.13;;
58657;SDS011;44428;45.630;13.786;2022-07-23T01:29:39;20.65;;;18.45;;
58657;SDS011;44428;45.630;13.786;2022-07-23T01:32:11;19.98;;;17.98;;
58657;SDS011;44428;45.630;13.786;2022-07-23T01:34:37;21.02;;;19.13;;
58657;SDS011;44428;45.630;13.786;2022-07-23T01:37:03;20.45;;;18.35;;
58657;SDS011;44428;45.630;13.786;2022-07-23T01:39:29;20.75;;;18.63;;
58657;SDS011;44428;45.630;13.786;2022-07-23T01:41:55;20.25;;;18.25;;
58657;SDS011;44428;45.630;13.786;2022-07-23T01:44:22;20.92;;;18.83;;
58657;SDS011;44428;45.630;13.786;2022-07-23T01:46:48;19.85;;;17.95;;
58657;SDS011;44428;45.630;13.786;2022-07-23T01:49:15;21.00;;;18.85;;
58657;SDS011;44428;45.630;13.786;2022-07-23T01:52:03;20.35;;;18.42;;
58657;SDS011;44428;45.630;13.786;2022-07-23T01:54:47;20.15;;;18.05;;
58657;SDS011;44428;45.630;13.786;2022-07-23T01:57:13;21.20;;;19.08;;
58657;SDS011;44428;45.630;13.786;2022-07-23T01:59:39;20.15;;;18.35;;
58657;SDS011;44428;45.630;13.786;2022-07-23T02:02:05;20.15;;;18.17;;
58657;SDS011;44428;45.630;13.786;2022-07-23T02:04:31;19.90;;;18.15;;
58657;SDS011;44428;45.630;13.786;2022-07-23T02:07:00;20.27;;;18.45;;
58657;SDS011;44428;45.630;13.786;2022-07-23T02:09:26;20.75;;;18.75;;
58657;SDS011;44428;45.630;13.786;2022-07-23T02:11:52;22.60;;;19.73;;
58657;SDS011;44428;45.630;13.786;2022-07-23T02:14:18;21.40;;;19.40;;
58657;SDS011;44428;45.630;13.786;2022-07-23T02:16:45;20.40;;;18.40;;
58657;SDS011;44428;45.630;13.786;2022-07-23T02:19:11;21.38;;;19.55;;
58657;SDS011;44428;45.630;13.786;2022-07-23T02:21:36;20.52;;;18.63;;
58657;SDS011;44428;45.630;13.786;2022-07-23T02:24:02;20.85;;;18.85;;
58657;SDS011;44428;45.630;13.786;2022-07-23T02:26:28;20.88;;;19.00;;
58657;SDS011;44428;45.630;13.786;2022-07-23T02:28:54;20.90;;;18.90;;
58657;SDS011;44428;45.630;13.786;2022-07-23T02:31:20;21.33;;;18.70;;
58657;SDS011;44428;45.630;13.786;2022-07-23T02:33:46;21.27;;;19.27;;
58657;SDS011;44428;45.630;13.786;2022-07-23T02:36:13;21.20;;;19.33;;
58657;SDS011;44428;45.630;13.786;2022-07-23T02:38:40;21.10;;;19.13;;
58657;SDS011;44428;45.630;13.786;2022-07-23T02:41:06;20.55;;;18.67;;
58657;SDS011;44428;45.630;13.786;2022-07-23T02:43:31;21.20;;;19.30;;
58657;SDS011;44428;45.630;13.786;2022-07-23T02:45:57;21.08;;;19.00;;
58657;SDS011;44428;45.630;13.786;2022-07-23T02:48:23;22.05;;;20.05;;
58657;SDS011;44428;45.630;13.786;2022-07-23T02:50:49;21.63;;;19.35;;
58657;SDS011;44428;45.630;13.786;2022-07-23T02:53:20;21.38;;;19.45;;
58657;SDS011;44428;45.630;13.786;2022-07-23T02:55:47;20.80;;;18.80;;
58657;SDS011;44428;45.630;13.786;2022-07-23T02:58:12;20.85;;;18.85;;
58657;SDS011;44428;45.630;13.786;2022-07-23T03:00:38;20.17;;;18.17;;
58657;SDS011;44428;45.630;13.786;2022-07-23T03:03:04;21.38;;;19.38;;
58657;SDS011;44428;45.630;13.786;2022-07-23T03:05:30;21.42;;;19.38;;
58657;SDS011;44428;45.630;13.786;2022-07-23T03:07:56;21.08;;;19.08;;
58657;SDS011;44428;45.630;13.786;2022-07-23T03:10:21;21.42;;;19.35;;
58657;SDS011;44428;45.630;13.786;2022-07-23T03:12:47;21.38;;;19.17;;
58657;SDS011;44428;45.630;13.786;2022-07-23T03:15:13;20.52;;;18.70;;
58657;SDS011;44428;45.630;13.786;2022-07-23T03:17:39;20.73;;;18.80;;
58657;SDS011;44428;45.630;13.786;2022-07-23T03:20:05;21.10;;;19.05;;
58657;SDS011;44428;45.630;13.786;2022-07-23T03:22:31;21.00;;;19.00;;
58657;SDS011;44428;45.630;13.786;2022-07-23T03:24:57;20.83;;;18.73;;
58657;SDS011;44428;45.630;13.786;2022-07-23T03:27:28;20.42;;;18.52;;
58657;SDS011;44428;45.630;13.786;2022-07-23T03:29:56;21.08;;;19.27;;
58657;SDS011;44428;45.630;13.786;2022-07-23T03:32:24;20.30;;;18.30;;
58657;SDS011;44428;45.630;13.786;2022-07-23T03:34:50;20.42;;;18.42;;
58657;SDS011;44428;45.630;13.786;2022-07-23T03:37:16;20.88;;;18.77;;
58657;SDS011;44428;45.630;13.786;2022-07-23T03:39:44;20.60;;;18.23;;
58657;SDS011;44428;45.630;13.786;2022-07-23T03:42:10;21.55;;;19.45;;
58657;SDS011;44428;45.630;13.786;2022-07-23T03:44:35;20.02;;;18.13;;
58657;SDS011;44428;45.630;13.786;2022-07-23T03:47:04;20.48;;;18.58;;
58657;SDS011;44428;45.630;13.786;2022-07-23T03:49:31;20.95;;;18.88;;
58657;SDS011;44428;45.630;13.786;2022-07-23T03:51:58;20.80;;;18.63;;
58657;SDS011;44428;45.630;13.786;2022-07-23T03:54:24;19.83;;;17.88;;
58657;SDS011;44428;45.630;13.786;2022-07-23T03:56:49;20.58;;;18.05;;
58657;SDS011;44428;45.630;13.786;2022-07-23T03:59:15;20.90;;;18.95;;
58657;SDS011;44428;45.630;13.786;2022-07-23T04:01:41;20.17;;;17.67;;
58657;SDS011;44428;45.630;13.786;2022-07-23T04:04:07;20.15;;;17.90;;
58657;SDS011;44428;45.630;13.786;2022-07-23T04:06:35;20.92;;;18.35;;
58657;SDS011;44428;45.630;13.786;2022-07-23T04:09:01;20.92;;;18.35;;
58657;SDS011;44428;45.630;13.786;2022-07-23T04:11:29;19.95;;;18.08;;
58657;SDS011;44428;45.630;13.786;2022-07-23T04:13:55;19.48;;;17.60;;
58657;SDS011;44428;45.630;13.786;2022-07-23T04:16:21;21.00;;;18.33;;
58657;SDS011;44428;45.630;13.786;2022-07-23T04:18:47;22.13;;;18.30;;
58657;SDS011;44428;45.630;13.786;2022-07-23T04:21:19;20.85;;;18.77;;
58657;SDS011;44428;45.630;13.786;2022-07-23T04:23:45;20.30;;;18.33;;
58657;SDS011;44428;45.630;13.786;2022-07-23T04:26:12;20.20;;;18.13;;
58657;SDS011;44428;45.630;13.786;2022-07-23T04:28:38;21.45;;;19.15;;
58657;SDS011;44428;45.630;13.786;2022-07-23T04:31:04;20.30;;;18.40;;
58657;SDS011;44428;45.630;13.786;2022-07-23T04:33:31;20.33;;;18.42;;
58657;SDS011;44428;45.630;13.786;2022-07-23T04:35:58;20.60;;;18.40;;
58657;SDS011;44428;45.630;13.786;2022-07-23T04:38:24;20.75;;;18.58;;
58657;SDS011;44428;45.630;13.786;2022-07-23T04:40:53;21.38;;;19.40;;
58657;SDS011;44428;45.630;13.786;2022-07-23T04:43:19;22.95;;;20.58;;
58657;SDS011;44428;45.630;13.786;2022-07-23T04:45:48;23.83;;;21.35;;
58657;SDS011;44428;45.630;13.786;2022-07-23T04:48:13;23.13;;;20.85;;
58657;SDS011;44428;45.630;13.786;2022-07-23T04:50:40;23.27;;;20.17;;
58657;SDS011;44428;45.630;13.786;2022-07-23T04:53:14;22.80;;;20.65;;
58657;SDS011;44428;45.630;13.786;2022-07-23T04:55:40;24.42;;;22.10;;
58657;SDS011;44428;45.630;13.786;2022-07-23T04:58:06;26.30;;;23.77;;
58657;SDS011;44428;45.630;13.786;2022-07-23T05:00:32;24.73;;;22.33;;
58657;SDS011;44428;45.630;13.786;2022-07-23T05:02:58;25.27;;;22.55;;
58657;SDS011;44428;45.630;13.786;2022-07-23T05:05:23;25.02;;;22.73;;
58657;SDS011;44428;45.630;13.786;2022-07-23T05:07:51;27.08;;;24.45;;
58657;SDS011;44428;45.630;13.786;2022-07-23T05:10:17;26.42;;;23.92;;
58657;SDS011;44428;45.630;13.786;2022-07-23T05:12:43;27.10;;;24.50;;
58657;SDS011;44428;45.630;13.786;2022-07-23T05:15:08;26.60;;;23.95;;
58657;SDS011;44428;45.630;13.786;2022-07-23T05:17:34;28.05;;;25.27;;
58657;SDS011;44428;45.630;13.786;2022-07-23T05:20:03;27.23;;;24.52;;
58657;SDS011;44428;45.630;13.786;2022-07-23T05:22:29;28.08;;;25.27;;
58657;SDS011;44428;45.630;13.786;2022-07-23T05:24:55;26.58;;;23.98;;
58657;SDS011;44428;45.630;13.786;2022-07-23T05:27:20;28.55;;;24.67;;
58657;SDS011;44428;45.630;13.786;2022-07-23T05:29:46;26.73;;;24.02;;
58657;SDS011;44428;45.630;13.786;2022-07-23T05:32:12;26.35;;;23.75;;
58657;SDS011;44428;45.630;13.786;2022-07-23T05:34:43;26.15;;;23.88;;
58657;SDS011;44428;45.630;13.786;2022-07-23T05:37:09;27.33;;;24.70;;
58657;SDS011;44428;45.630;13.786;2022-07-23T05:39:34;26.83;;;24.23;;
58657;SDS011;44428;45.630;13.786;2022-07-23T05:42:00;28.73;;;25.58;;
58657;SDS011;44428;45.630;13.786;2022-07-23T05:44:26;28.40;;;25.50;;
58657;SDS011;44428;45.630;13.786;2022-07-23T05:46:52;27.45;;;24.63;;
58657;SDS011;44428;45.630;13.786;2022-07-23T05:49:20;29.08;;;26.15;;
58657;SDS011;44428;45.630;13.786;2022-07-23T05:52:03;27.25;;;24.33;;
58657;SDS011;44428;45.630;13.786;2022-07-23T05:54:45;26.13;;;23.63;;
58657;SDS011;44428;45.630;13.786;2022-07-23T05:57:10;24.25;;;22.00;;
58657;SDS011;44428;45.630;13.786;2022-07-23T05:59:36;27.38;;;24.48;;
58657;SDS011;44428;45.630;13.786;2022-07-23T06:02:02;26.00;;;23.55;;
58657;SDS011;44428;45.630;13.786;2022-07-23T06:04:28;24.63;;;22.10;;
58657;SDS011;44428;45.630;13.786;2022-07-23T06:07:13;22.88;;;20.67;;
58657;SDS011;44428;45.630;13.786;2022-07-23T06:09:39;23.73;;;21.55;;
58657;SDS011;44428;45.630;13.786;2022-07-23T06:12:05;25.98;;;23.60;;
58657;SDS011;44428;45.630;13.786;2022-07-23T06:14:31;22.42;;;20.30;;
58657;SDS011;44428;45.630;13.786;2022-07-23T06:16:58;22.23;;;20.42;;
58657;SDS011;44428;45.630;13.786;2022-07-23T06:19:26;22.70;;;20.65;;
58657;SDS011;44428;45.630;13.786;2022-07-23T06:21:52;24.42;;;22.02;;
58657;SDS011;44428;45.630;13.786;2022-07-23T06:24:17;21.85;;;19.38;;
58657;SDS011;44428;45.630;13.786;2022-07-23T06:26:43;23.35;;;20.98;;
58657;SDS011;44428;45.630;13.786;2022-07-23T06:29:09;21.60;;;19.38;;
58657;SDS011;44428;45.630;13.786;2022-07-23T06:31:35;24.00;;;21.60;;
58657;SDS011;44428;45.630;13.786;2022-07-23T06:34:01;27.45;;;22.85;;
58657;SDS011;44428;45.630;13.786;2022-07-23T06:36:27;25.52;;;20.42;;
58657;SDS011;44428;45.630;13.786;2022-07-23T06:38:53;24.00;;;20.95;;
58657;SDS011;44428;45.630;13.786;2022-07-23T06:41:18;25.05;;;22.63;;
58657;SDS011;44428;45.630;13.786;2022-07-23T06:43:44;23.25;;;21.08;;
58657;SDS011;44428;45.630;13.786;2022-07-23T06:46:12;22.73;;;20.75;;
58657;SDS011;44428;45.630;13.786;2022-07-23T06:48:38;24.98;;;22.45;;
58657;SDS011;44428;45.630;13.786;2022-07-23T06:51:03;23.55;;;21.35;;
58657;SDS011;44428;45.630;13.786;2022-07-23T06:53:30;21.08;;;19.00;;
58657;SDS011;44428;45.630;13.786;2022-07-23T06:55:55;23.75;;;21.33;;
58657;SDS011;44428;45.630;13.786;2022-07-23T06:58:21;25.45;;;23.33;;
58657;SDS011;44428;45.630;13.786;2022-07-23T07:00:47;26.50;;;23.75;;
58657;SDS011;44428;45.630;13.786;2022-07-23T07:03:12;26.95;;;24.38;;
58657;SDS011;44428;45.630;13.786;2022-07-23T07:05:38;26.40;;;23.67;;
58657;SDS011;44428;45.630;13.786;2022-07-23T07:08:05;27.67;;;25.05;;
58657;SDS011;44428;45.630;13.786;2022-07-23T07:10:31;28.20;;;25.60;;
58657;SDS011;44428;45.630;13.786;2022-07-23T07:12:57;28.25;;;25.52;;
58657;SDS011;44428;45.630;13.786;2022-07-23T07:15:23;30.50;;;27.33;;
58657;SDS011;44428;45.630;13.786;2022-07-23T07:17:49;29.35;;;26.80;;
58657;SDS011;44428;45.630;13.786;2022-07-23T07:20:14;28.92;;;26.42;;
58657;SDS011;44428;45.630;13.786;2022-07-23T07:22:40;27.65;;;24.85;;
58657;SDS011;44428;45.630;13.786;2022-07-23T07:25:06;27.02;;;24.63;;
58657;SDS011;44428;45.630;13.786;2022-07-23T07:27:32;28.20;;;25.30;;
58657;SDS011;44428;45.630;13.786;2022-07-23T07:29:58;26.08;;;23.50;;
58657;SDS011;44428;45.630;13.786;2022-07-23T07:32:24;26.92;;;24.33;;
58657;SDS011;44428;45.630;13.786;2022-07-23T07:34:50;25.25;;;22.67;;
58657;SDS011;44428;45.630;13.786;2022-07-23T07:37:16;25.25;;;22.92;;
58657;SDS011;44428;45.630;13.786;2022-07-23T07:39:41;24.73;;;22.52;;
58657;SDS011;44428;45.630;13.786;2022-07-23T07:42:07;23.88;;;21.58;;
58657;SDS011;44428;45.630;13.786;2022-07-23T07:44:33;25.40;;;22.88;;
58657;SDS011;44428;45.630;13.786;2022-07-23T07:46:59;25.35;;;23.05;;
58657;SDS011;44428;45.630;13.786;2022-07-23T07:49:24;24.85;;;22.42;;
58657;SDS011;44428;45.630;13.786;2022-07-23T07:51:50;24.10;;;21.85;;
58657;SDS011;44428;45.630;13.786;2022-07-23T07:54:16;24.30;;;22.10;;
58657;SDS011;44428;45.630;13.786;2022-07-23T07:56:42;23.42;;;21.15;;
58657;SDS011;44428;45.630;13.786;2022-07-23T07:59:07;24.20;;;21.85;;
58657;SDS011;44428;45.630;13.786;2022-07-23T08:01:33;22.70;;;20.55;;
58657;SDS011;44428;45.630;13.786;2022-07-23T08:03:59;23.25;;;20.88;;
58657;SDS011;44428;45.630;13.786;2022-07-23T08:06:25;22.38;;;20.25;;
58657;SDS011;44428;45.630;13.786;2022-07-23T08:08:50;22.77;;;20.55;;
58657;SDS011;44428;45.630;13.786;2022-07-23T08:11:16;22.83;;;20.60;;
58657;SDS011;44428;45.630;13.786;2022-07-23T08:13:42;21.75;;;19.60;;
58657;SDS011;44428;45.630;13.786;2022-07-23T08:16:10;22.48;;;20.48;;
58657;SDS011;44428;45.630;13.786;2022-07-23T08:18:36;22.13;;;19.52;;
58657;SDS011;44428;45.630;13.786;2022-07-23T08:21:02;22.85;;;20.55;;
58657;SDS011;44428;45.630;13.786;2022-07-23T08:23:29;21.70;;;19.63;;
58657;SDS011;44428;45.630;13.786;2022-07-23T08:25:55;20.88;;;18.98;;
58657;SDS011;44428;45.630;13.786;2022-07-23T08:28:22;20.25;;;18.50;;
58657;SDS011;44428;45.630;13.786;2022-07-23T08:30:48;17.95;;;16.23;;
58657;SDS011;44428;45.630;13.786;2022-07-23T08:33:14;18.25;;;16.70;;
58657;SDS011;44428;45.630;13.786;2022-07-23T08:35:43;18.35;;;15.85;;
58657;SDS011;44428;45.630;13.786;2022-07-23T08:38:14;18.67;;;16.05;;
58657;SDS011;44428;45.630;13.786;2022-07-23T08:40:41;20.27;;;16.60;;
58657;SDS011;44428;45.630;13.786;2022-07-23T08:43:10;17.55;;;15.73;;
58657;SDS011;44428;45.630;13.786;2022-07-23T08:45:45;16.88;;;15.32;;
58657;SDS011;44428;45.630;13.786;2022-07-23T08:48:16;17.83;;;16.00;;
58657;SDS011;44428;45.630;13.786;2022-07-23T08:50:45;18.42;;;16.70;;
58657;SDS011;44428;45.630;13.786;2022-07-23T08:53:12;18.55;;;16.95;;
58657;SDS011;44428;45.630;13.786;2022-07-23T08:55:39;19.15;;;17.15;;
58657;SDS011;44428;45.630;13.786;2022-07-23T08:58:05;18.13;;;16.40;;
58657;SDS011;44428;45.630;13.786;2022-07-23T09:00:31;17.42;;;15.65;;
58657;SDS011;44428;45.630;13.786;2022-07-23T09:02:58;16.67;;;13.90;;
58657;SDS011;44428;45.630;13.786;2022-07-23T09:05:24;14.20;;;12.27;;
58657;SDS011;44428;45.630;13.786;2022-07-23T09:11:02;12.68;;;11.48;;
58657;SDS011;44428;45.630;13.786;2022-07-23T09:16:05;13.88;;;12.35;;
58657;SDS011;44428;45.630;13.786;2022-07-23T09:18:47;14.73;;;12.65;;
58657;SDS011;44428;45.630;13.786;2022-07-23T09:23:48;14.80;;;13.35;;
58657;SDS011;44428;45.630;13.786;2022-07-23T09:26:18;15.18;;;13.68;;
58657;SDS011;44428;45.630;13.786;2022-07-23T09:28:49;15.02;;;13.57;;
58657;SDS011;44428;45.630;13.786;2022-07-23T09:31:18;15.52;;;13.98;;
58657;SDS011;44428;45.630;13.786;2022-07-23T09:33:44;15.23;;;13.73;;
58657;SDS011;44428;45.630;13.786;2022-07-23T09:36:10;15.48;;;13.52;;
58657;SDS011;44428;45.630;13.786;2022-07-23T09:38:36;15.35;;;13.75;;
58657;SDS011;44428;45.630;13.786;2022-07-23T09:41:13;15.68;;;13.10;;
58657;SDS011;44428;45.630;13.786;2022-07-23T09:43:39;14.70;;;13.32;;
58657;SDS011;44428;45.630;13.786;2022-07-23T09:48:51;15.30;;;13.23;;
58657;SDS011;44428;45.630;13.786;2022-07-23T09:51:18;13.65;;;12.35;;
58657;SDS011;44428;45.630;13.786;2022-07-23T09:53:49;13.85;;;12.55;;
58657;SDS011;44428;45.630;13.786;2022-07-23T09:56:15;14.40;;;12.15;;
58657;SDS011;44428;45.630;13.786;2022-07-23T09:58:41;15.57;;;12.50;;
58657;SDS011;44428;45.630;13.786;2022-07-23T10:01:26;15.45;;;12.05;;
58657;SDS011;44428;45.630;13.786;2022-07-23T10:03:52;13.45;;;12.07;;
58657;SDS011;44428;45.630;13.786;2022-07-23T10:06:58;13.77;;;12.20;;
58657;SDS011;44428;45.630;13.786;2022-07-23T10:09:45;12.60;;;11.40;;
58657;SDS011;44428;45.630;13.786;2022-07-23T10:12:33;12.45;;;11.18;;
58657;SDS011;44428;45.630;13.786;2022-07-23T10:15:03;12.77;;;11.57;;
58657;SDS011;44428;45.630;13.786;2022-07-23T10:17:31;13.07;;;11.55;;
58657;SDS011;44428;45.630;13.786;2022-07-23T10:19:57;12.50;;;11.30;;
58657;SDS011;44428;45.630;13.786;2022-07-23T10:22:23;11.57;;;10.48;;
58657;SDS011;44428;45.630;13.786;2022-07-23T10:36:20;10.90;;;9.43;;
58657;SDS011;44428;45.630;13.786;2022-07-23T10:39:34;10.30;;;9.30;;
58657;SDS011;44428;45.630;13.786;2022-07-23T10:41:43;10.40;;;9.38;;
58657;SDS011;44428;45.630;13.786;2022-07-23T10:44:09;10.00;;;9.05;;
58657;SDS011;44428;45.630;13.786;2022-07-23T10:46:35;9.65;;;8.65;;
58657;SDS011;44428;45.630;13.786;2022-07-23T10:54:49;13.52;;;10.30;;
58657;SDS011;44428;45.630;13.786;2022-07-23T10:57:26;12.70;;;11.40;;
58657;SDS011;44428;45.630;13.786;2022-07-23T11:02:30;13.27;;;11.93;;
58657;SDS011;44428;45.630;13.786;2022-07-23T11:10:46;13.85;;;11.38;;
58657;SDS011;44428;45.630;13.786;2022-07-23T11:19:12;12.20;;;11.00;;
58657;SDS011;44428;45.630;13.786;2022-07-23T11:36:56;16.10;;;14.60;;
58657;SDS011;44428;45.630;13.786;2022-07-23T11:39:22;13.52;;;12.25;;
58657;SDS011;44428;45.630;13.786;2022-07-23T11:41:51;11.63;;;10.57;;
58657;SDS011;44428;45.630;13.786;2022-07-23T11:44:27;10.43;;;8.85;;
58657;SDS011;44428;45.630;13.786;2022-07-23T11:46:58;12.52;;;11.40;;
58657;SDS011;44428;45.630;13.786;2022-07-23T11:49:25;17.27;;;13.32;;
58657;SDS011;44428;45.630;13.786;2022-07-23T11:52:14;14.30;;;12.85;;
58657;SDS011;44428;45.630;13.786;2022-07-23T11:57:19;15.70;;;14.30;;
58657;SDS011;44428;45.630;13.786;2022-07-23T11:59:47;17.25;;;15.68;;
58657;SDS011;44428;45.630;13.786;2022-07-23T12:02:16;16.90;;;15.40;;
58657;SDS011;44428;45.630;13.786;2022-07-23T12:04:43;16.02;;;14.63;;
58657;SDS011;44428;45.630;13.786;2022-07-23T12:09:51;12.55;;;7.97;;
58657;SDS011;44428;45.630;13.786;2022-07-23T12:12:17;12.43;;;8.70;;
58657;SDS011;44428;45.630;13.786;2022-07-23T12:14:49;10.35;;;8.10;;
58657;SDS011;44428;45.630;13.786;2022-07-23T12:17:16;12.27;;;8.50;;
58657;SDS011;44428;45.630;13.786;2022-07-23T12:19:42;10.85;;;9.75;;
58657;SDS011;44428;45.630;13.786;2022-07-23T12:22:09;10.52;;;9.45;;
58657;SDS011;44428;45.630;13.786;2022-07-23T12:27:24;10.95;;;9.80;;
58657;SDS011;44428;45.630;13.786;2022-07-23T12:29:51;9.35;;;8.45;;
58657;SDS011;44428;45.630;13.786;2022-07-23T12:32:27;8.75;;;7.30;;
58657;SDS011;44428;45.630;13.786;2022-07-23T12:35:05;7.40;;;5.43;;
58657;SDS011;44428;45.630;13.786;2022-07-23T12:37:36;6.45;;;4.88;;
58657;SDS011;44428;45.630;13.786;2022-07-23T12:43:18;7.32;;;5.70;;
58657;SDS011;44428;45.630;13.786;2022-07-23T12:48:20;8.02;;;5.80;;
58657;SDS011;44428;45.630;13.786;2022-07-23T12:50:54;7.10;;;6.05;;
58657;SDS011;44428;45.630;13.786;2022-07-23T12:56:14;7.75;;;6.80;;
58657;SDS011;44428;45.630;13.786;2022-07-23T12:59:15;12.38;;;7.15;;
58657;SDS011;44428;45.630;13.786;2022-07-23T13:01:39;10.40;;;7.30;;
58657;SDS011;44428;45.630;13.786;2022-07-23T13:06:35;10.38;;;7.97;;
58657;SDS011;44428;45.630;13.786;2022-07-23T13:09:03;10.30;;;7.85;;
58657;SDS011;44428;45.630;13.786;2022-07-23T13:11:31;9.88;;;8.25;;
58657;SDS011;44428;45.630;13.786;2022-07-23T13:13:56;10.80;;;8.38;;
58657;SDS011;44428;45.630;13.786;2022-07-23T13:16:22;10.77;;;8.38;;
58657;SDS011;44428;45.630;13.786;2022-07-23T13:18:48;10.88;;;8.27;;
58657;SDS011;44428;45.630;13.786;2022-07-23T13:21:14;9.10;;;8.20;;
58657;SDS011;44428;45.630;13.786;2022-07-23T13:23:41;8.30;;;7.50;;
58657;SDS011;44428;45.630;13.786;2022-07-23T13:26:07;8.07;;;7.28;;
58657;SDS011;44428;45.630;13.786;2022-07-23T13:28:33;8.75;;;7.13;;
58657;SDS011;44428;45.630;13.786;2022-07-23T13:30:58;9.50;;;6.85;;
58657;SDS011;44428;45.630;13.786;2022-07-23T13:33:24;7.80;;;6.72;;
58657;SDS011;44428;45.630;13.786;2022-07-23T13:35:51;10.38;;;7.22;;
58657;SDS011;44428;45.630;13.786;2022-07-23T13:38:18;8.20;;;6.72;;
58657;SDS011;44428;45.630;13.786;2022-07-23T13:40:46;9.48;;;6.93;;
58657;SDS011;44428;45.630;13.786;2022-07-23T13:43:15;8.90;;;7.22;;
58657;SDS011;44428;45.630;13.786;2022-07-23T13:45:42;9.15;;;6.90;;
58657;SDS011;44428;45.630;13.786;2022-07-23T13:48:09;8.95;;;6.20;;
58657;SDS011;44428;45.630;13.786;2022-07-23T13:50:36;8.80;;;6.80;;
58657;SDS011;44428;45.630;13.786;2022-07-23T13:53:04;7.22;;;6.05;;
58657;SDS011;44428;45.630;13.786;2022-07-23T13:55:32;7.27;;;6.33;;
58657;SDS011;44428;45.630;13.786;2022-07-23T13:57:58;6.90;;;5.30;;
58657;SDS011;44428;45.630;13.786;2022-07-23T14:00:24;6.13;;;5.30;;
58657;SDS011;44428;45.630;13.786;2022-07-23T14:02:51;7.47;;;5.47;;
58657;SDS011;44428;45.630;13.786;2022-07-23T14:05:16;7.97;;;5.63;;
58657;SDS011;44428;45.630;13.786;2022-07-23T14:07:42;6.95;;;5.68;;
58657;SDS011;44428;45.630;13.786;2022-07-23T14:10:09;8.82;;;6.10;;
58657;SDS011;44428;45.630;13.786;2022-07-23T14:12:36;9.73;;;5.85;;
58657;SDS011;44428;45.630;13.786;2022-07-23T14:15:03;9.73;;;5.65;;
58657;SDS011;44428;45.630;13.786;2022-07-23T14:17:31;7.55;;;6.03;;
58657;SDS011;44428;45.630;13.786;2022-07-23T14:19:58;9.15;;;5.47;;
58657;SDS011;44428;45.630;13.786;2022-07-23T14:22:24;6.63;;;4.72;;
58657;SDS011;44428;45.630;13.786;2022-07-23T14:24:49;6.90;;;5.03;;
58657;SDS011;44428;45.630;13.786;2022-07-23T14:27:15;8.85;;;5.10;;
58657;SDS011;44428;45.630;13.786;2022-07-23T14:29:41;9.40;;;5.78;;
58657;SDS011;44428;45.630;13.786;2022-07-23T14:32:07;8.65;;;5.22;;
58657;SDS011;44428;45.630;13.786;2022-07-23T14:34:33;8.68;;;5.25;;
58657;SDS011;44428;45.630;13.786;2022-07-23T14:37:00;7.63;;;5.40;;
58657;SDS011;44428;45.630;13.786;2022-07-23T14:39:26;6.57;;;5.32;;
58657;SDS011;44428;45.630;13.786;2022-07-23T14:41:52;8.05;;;5.32;;
58657;SDS011;44428;45.630;13.786;2022-07-23T14:44:18;6.57;;;5.00;;
58657;SDS011;44428;45.630;13.786;2022-07-23T14:46:44;8.48;;;4.90;;
58657;SDS011;44428;45.630;13.786;2022-07-23T14:49:10;7.45;;;4.88;;
58657;SDS011;44428;45.630;13.786;2022-07-23T14:51:36;8.27;;;5.05;;
58657;SDS011;44428;45.630;13.786;2022-07-23T14:54:02;7.70;;;4.78;;
58657;SDS011;44428;45.630;13.786;2022-07-23T14:56:29;9.13;;;5.30;;
58657;SDS011;44428;45.630;13.786;2022-07-23T14:58:54;8.48;;;4.57;;
58657;SDS011;44428;45.630;13.786;2022-07-23T15:01:21;11.02;;;4.93;;
58657;SDS011;44428;45.630;13.786;2022-07-23T15:03:48;7.80;;;5.28;;
58657;SDS011;44428;45.630;13.786;2022-07-23T15:06:15;7.07;;;5.63;;
58657;SDS011;44428;45.630;13.786;2022-07-23T15:08:42;7.43;;;5.78;;
58657;SDS011;44428;45.630;13.786;2022-07-23T15:11:07;8.90;;;5.72;;
58657;SDS011;44428;45.630;13.786;2022-07-23T15:13:35;9.18;;;5.30;;
58657;SDS011;44428;45.630;13.786;2022-07-23T15:16:01;7.57;;;5.75;;
58657;SDS011;44428;45.630;13.786;2022-07-23T15:18:28;7.15;;;5.30;;
58657;SDS011;44428;45.630;13.786;2022-07-23T15:20:54;7.32;;;5.35;;
58657;SDS011;44428;45.630;13.786;2022-07-23T15:23:20;6.55;;;5.55;;
58657;SDS011;44428;45.630;13.786;2022-07-23T15:25:46;7.15;;;5.75;;
58657;SDS011;44428;45.630;13.786;2022-07-23T15:28:11;7.95;;;5.80;;
58657;SDS011;44428;45.630;13.786;2022-07-23T15:30:38;7.78;;;5.63;;
58657;SDS011;44428;45.630;13.786;2022-07-23T15:33:04;7.88;;;5.30;;
58657;SDS011;44428;45.630;13.786;2022-07-23T15:35:31;11.10;;;5.38;;